sensor_id;sensor_type;location;lat;lon;timestamp;pressure;altitude;pressure_sealevel;temperature;humidity
32875;BME280;40468;42.128;24.750;2023-02-15T00:00:09;100954.47;;;4.45;51.42
32875;BME280;40468;42.128;24.750;2023-02-15T00:01:40;100956.19;;;4.43;51.57
32875;BME280;40468;42.128;24.750;2023-02-15T00:03:12;100953.59;;;4.40;51.50
32875;BME280;40468;42.128;24.750;2023-02-15T00:04:44;100960.50;;;4.39;51.64
32875;BME280;40468;42.128;24.750;2023-02-15T00:06:18;100957.06;;;4.39;51.75
32875;BME280;40468;42.128;24.750;2023-02-15T00:07:50;100959.63;;;4.39;51.54
32875;BME280;40468;42.128;24.750;2023-02-15T00:09:23;100957.91;;;4.38;51.68
32875;BME280;40468;42.128;24.750;2023-02-15T00:11:02;100967.38;;;4.36;51.76
32875;BME280;40468;42.128;24.750;2023-02-15T00:12:34;100958.78;;;4.33;51.79
32875;BME280;40468;42.128;24.750;2023-02-15T00:14:06;100962.22;;;4.34;51.72
32875;BME280;40468;42.128;24.750;2023-02-15T00:15:37;100961.38;;;4.35;51.73
32875;BME280;40468;42.128;24.750;2023-02-15T00:17:08;100963.94;;;4.33;51.78
32875;BME280;40468;42.128;24.750;2023-02-15T00:18:40;100963.06;;;4.33;51.79
32875;BME280;40468;42.128;24.750;2023-02-15T00:20:12;100966.53;;;4.32;51.83
32875;BME280;40468;42.128;24.750;2023-02-15T00:21:43;100966.50;;;4.30;51.74
32875;BME280;40468;42.128;24.750;2023-02-15T00:23:15;100973.38;;;4.28;51.88
32875;BME280;40468;42.128;24.750;2023-02-15T00:24:48;100966.53;;;4.24;51.93
32875;BME280;40468;42.128;24.750;2023-02-15T00:26:20;100968.22;;;4.22;52.05
32875;BME280;40468;42.128;24.750;2023-02-15T00:27:50;100974.25;;;4.21;52.14
32875;BME280;40468;42.128;24.750;2023-02-15T00:29:22;100978.56;;;4.21;52.18
32875;BME280;40468;42.128;24.750;2023-02-15T00:30:54;100977.72;;;4.20;52.06
32875;BME280;40468;42.128;24.750;2023-02-15T00:32:24;100972.56;;;4.20;52.17
32875;BME280;40468;42.128;24.750;2023-02-15T00:34:00;100964.81;;;4.17;52.23
32875;BME280;40468;42.128;24.750;2023-02-15T00:35:31;100963.94;;;4.15;52.30
32875;BME280;40468;42.128;24.750;2023-02-15T00:37:03;100961.38;;;4.09;52.41
32875;BME280;40468;42.128;24.750;2023-02-15T00:38:34;100962.22;;;4.05;52.67
32875;BME280;40468;42.128;24.750;2023-02-15T00:40:07;100961.34;;;4.01;52.77
32875;BME280;40468;42.128;24.750;2023-02-15T00:41:39;100969.97;;;4.00;52.85
32875;BME280;40468;42.128;24.750;2023-02-15T00:43:11;100964.81;;;4.00;52.85
32875;BME280;40468;42.128;24.750;2023-02-15T00:44:43;100969.94;;;4.02;52.82
32875;BME280;40468;42.128;24.750;2023-02-15T00:46:15;100970.81;;;4.04;52.63
32875;BME280;40468;42.128;24.750;2023-02-15T00:47:45;100965.66;;;4.04;52.67
32875;BME280;40468;42.128;24.750;2023-02-15T00:49:17;100966.53;;;4.03;52.71
32875;BME280;40468;42.128;24.750;2023-02-15T00:50:49;100963.94;;;4.01;52.71
32875;BME280;40468;42.128;24.750;2023-02-15T00:52:20;100966.53;;;4.03;52.75
32875;BME280;40468;42.128;24.750;2023-02-15T00:53:52;100963.94;;;4.03;52.75
32875;BME280;40468;42.128;24.750;2023-02-15T00:55:24;100968.25;;;4.04;52.76
32875;BME280;40468;42.128;24.750;2023-02-15T00:56:56;100966.50;;;4.04;52.74
32875;BME280;40468;42.128;24.750;2023-02-15T00:58:28;100954.47;;;4.05;52.85
32875;BME280;40468;42.128;24.750;2023-02-15T00:59:58;100962.22;;;4.06;52.82
32875;BME280;40468;42.128;24.750;2023-02-15T01:01:30;100957.06;;;4.06;52.86
32875;BME280;40468;42.128;24.750;2023-02-15T01:03:02;100965.66;;;4.04;53.02
32875;BME280;40468;42.128;24.750;2023-02-15T01:04:33;100956.22;;;4.03;52.97
32875;BME280;40468;42.128;24.750;2023-02-15T01:06:05;100957.94;;;4.01;53.01
32875;BME280;40468;42.128;24.750;2023-02-15T01:07:37;100955.34;;;4.01;53.20
32875;BME280;40468;42.128;24.750;2023-02-15T01:09:07;100961.34;;;4.01;53.24
32875;BME280;40468;42.128;24.750;2023-02-15T01:10:40;100957.06;;;4.00;53.29
32875;BME280;40468;42.128;24.750;2023-02-15T01:12:11;100951.91;;;4.02;53.22
32875;BME280;40468;42.128;24.750;2023-02-15T01:13:43;100949.31;;;4.02;53.35
32875;BME280;40468;42.128;24.750;2023-02-15T01:15:14;100953.66;;;4.00;53.29
32875;BME280;40468;42.128;24.750;2023-02-15T01:16:46;100951.06;;;4.00;53.33
32875;BME280;40468;42.128;24.750;2023-02-15T01:18:18;100945.03;;;4.01;53.37
32875;BME280;40468;42.128;24.750;2023-02-15T01:19:48;100940.75;;;4.01;53.35
32875;BME280;40468;42.128;24.750;2023-02-15T01:21:22;100942.47;;;4.01;53.40
32875;BME280;40468;42.128;24.750;2023-02-15T01:22:54;100936.44;;;4.02;53.41
32875;BME280;40468;42.128;24.750;2023-02-15T01:24:26;100937.31;;;4.04;53.39
32875;BME280;40468;42.128;24.750;2023-02-15T01:26:02;100934.72;;;4.04;53.42
32875;BME280;40468;42.128;24.750;2023-02-15T01:27:34;100941.59;;;4.02;53.45
32875;BME280;40468;42.128;24.750;2023-02-15T01:29:05;100934.72;;;4.01;53.54
32875;BME280;40468;42.128;24.750;2023-02-15T01:30:37;100933.88;;;4.00;53.50
32875;BME280;40468;42.128;24.750;2023-02-15T01:32:09;100932.16;;;4.02;53.45
32875;BME280;40468;42.128;24.750;2023-02-15T01:33:41;100930.44;;;4.03;53.40
32875;BME280;40468;42.128;24.750;2023-02-15T01:35:13;100931.28;;;4.05;53.22
32875;BME280;40468;42.128;24.750;2023-02-15T01:36:43;100933.84;;;4.05;53.25
32875;BME280;40468;42.128;24.750;2023-02-15T01:38:15;100935.59;;;4.06;53.29
32875;BME280;40468;42.128;24.750;2023-02-15T01:39:46;100934.75;;;4.05;53.19
32875;BME280;40468;42.128;24.750;2023-02-15T01:41:19;100941.59;;;4.03;53.23
32875;BME280;40468;42.128;24.750;2023-02-15T01:42:51;100934.75;;;4.02;53.31
32875;BME280;40468;42.128;24.750;2023-02-15T01:46:13;100934.75;;;4.02;53.31
32875;BME280;40468;42.128;24.750;2023-02-15T01:47:46;100941.59;;;4.05;53.28
32875;BME280;40468;42.128;24.750;2023-02-15T01:49:19;100940.75;;;4.04;53.30
32875;BME280;40468;42.128;24.750;2023-02-15T01:50:53;100935.59;;;4.04;53.25
32875;BME280;40468;42.128;24.750;2023-02-15T01:52:25;100939.00;;;4.05;53.34
32875;BME280;40468;42.128;24.750;2023-02-15T01:53:57;100945.06;;;4.05;53.36
32875;BME280;40468;42.128;24.750;2023-02-15T01:55:30;100934.72;;;4.01;53.37
32875;BME280;40468;42.128;24.750;2023-02-15T01:57:06;100945.03;;;4.04;53.38
32875;BME280;40468;42.128;24.750;2023-02-15T01:58:38;100945.03;;;4.04;53.31
32875;BME280;40468;42.128;24.750;2023-02-15T02:00:10;100950.19;;;4.04;53.33
32875;BME280;40468;42.128;24.750;2023-02-15T02:01:42;100946.75;;;4.05;53.33
32875;BME280;40468;42.128;24.750;2023-02-15T02:03:13;100949.31;;;4.02;53.47
32875;BME280;40468;42.128;24.750;2023-02-15T02:04:47;100947.63;;;4.04;53.39
32875;BME280;40468;42.128;24.750;2023-02-15T02:06:18;100957.06;;;4.05;53.32
32875;BME280;40468;42.128;24.750;2023-02-15T02:07:51;100954.47;;;4.05;53.33
32875;BME280;40468;42.128;24.750;2023-02-15T02:09:24;100963.09;;;4.07;53.30
32875;BME280;40468;42.128;24.750;2023-02-15T02:10:56;100961.38;;;4.06;53.25
32875;BME280;40468;42.128;24.750;2023-02-15T02:12:29;100955.38;;;4.05;53.29
32875;BME280;40468;42.128;24.750;2023-02-15T02:14:00;100964.78;;;4.05;53.48
32875;BME280;40468;42.128;24.750;2023-02-15T02:15:34;100959.63;;;4.05;53.37
32875;BME280;40468;42.128;24.750;2023-02-15T02:17:10;100959.63;;;4.05;53.33
32875;BME280;40468;42.128;24.750;2023-02-15T02:18:47;100969.09;;;4.04;53.22
32875;BME280;40468;42.128;24.750;2023-02-15T02:20:26;100968.25;;;4.07;53.29
32875;BME280;40468;42.128;24.750;2023-02-15T02:23:53;100976.81;;;4.04;53.25
32875;BME280;40468;42.128;24.750;2023-02-15T02:27:21;100971.66;;;4.04;53.27
32875;BME280;40468;42.128;24.750;2023-02-15T02:30:51;100979.41;;;4.01;53.40
32875;BME280;40468;42.128;24.750;2023-02-15T02:34:09;100980.25;;;4.02;53.29
32875;BME280;40468;42.128;24.750;2023-02-15T02:35:44;100974.25;;;3.98;53.42
32875;BME280;40468;42.128;24.750;2023-02-15T02:37:20;100971.69;;;3.97;53.42
32875;BME280;40468;42.128;24.750;2023-02-15T02:39:01;100964.78;;;3.96;53.57
32875;BME280;40468;42.128;24.750;2023-02-15T02:40:41;100975.97;;;3.98;53.39
32875;BME280;40468;42.128;24.750;2023-02-15T02:42:19;100973.41;;;3.98;53.35
32875;BME280;40468;42.128;24.750;2023-02-15T02:43:54;100970.78;;;3.96;53.35
32875;BME280;40468;42.128;24.750;2023-02-15T02:45:34;100981.13;;;3.95;53.42
32875;BME280;40468;42.128;24.750;2023-02-15T02:47:12;100981.97;;;3.95;53.35
32875;BME280;40468;42.128;24.750;2023-02-15T02:48:44;100984.56;;;3.97;53.32
32875;BME280;40468;42.128;24.750;2023-02-15T02:50:21;100983.69;;;3.96;53.33
32875;BME280;40468;42.128;24.750;2023-02-15T02:51:57;100981.13;;;3.95;53.36
32875;BME280;40468;42.128;24.750;2023-02-15T02:53:29;100977.69;;;3.94;53.32
32875;BME280;40468;42.128;24.750;2023-02-15T02:55:02;100974.25;;;3.92;53.37
32875;BME280;40468;42.128;24.750;2023-02-15T02:56:36;100984.56;;;3.91;53.54
32875;BME280;40468;42.128;24.750;2023-02-15T02:58:09;100983.69;;;3.88;53.56
32875;BME280;40468;42.128;24.750;2023-02-15T02:59:43;100982.00;;;3.87;53.48
32875;BME280;40468;42.128;24.750;2023-02-15T03:01:17;100983.69;;;3.84;53.67
32875;BME280;40468;42.128;24.750;2023-02-15T03:02:52;100980.25;;;3.82;53.66
32875;BME280;40468;42.128;24.750;2023-02-15T03:04:25;100979.38;;;3.81;53.73
32875;BME280;40468;42.128;24.750;2023-02-15T03:06:00;100981.09;;;3.79;53.70
32875;BME280;40468;42.128;24.750;2023-02-15T03:07:32;100989.69;;;3.80;53.78
32875;BME280;40468;42.128;24.750;2023-02-15T03:09:06;100978.53;;;3.79;53.74
32875;BME280;40468;42.128;24.750;2023-02-15T03:10:44;100981.94;;;3.78;53.85
32875;BME280;40468;42.128;24.750;2023-02-15T03:12:17;100990.53;;;3.77;53.99
32875;BME280;40468;42.128;24.750;2023-02-15T03:13:50;100989.69;;;3.77;54.11
32875;BME280;40468;42.128;24.750;2023-02-15T03:15:22;100987.09;;;3.78;54.14
32875;BME280;40468;42.128;24.750;2023-02-15T03:16:54;100989.69;;;3.77;54.11
32875;BME280;40468;42.128;24.750;2023-02-15T03:18:27;100994.00;;;3.76;54.21
32875;BME280;40468;42.128;24.750;2023-02-15T03:20:00;100993.13;;;3.74;54.27
32875;BME280;40468;42.128;24.750;2023-02-15T03:21:36;100996.53;;;3.75;54.20
32875;BME280;40468;42.128;24.750;2023-02-15T03:23:10;100991.41;;;3.76;54.23
32875;BME280;40468;42.128;24.750;2023-02-15T03:24:44;100993.13;;;3.77;54.05
32875;BME280;40468;42.128;24.750;2023-02-15T03:26:18;100989.69;;;3.77;54.11
32875;BME280;40468;42.128;24.750;2023-02-15T03:27:52;100983.66;;;3.75;54.20
32875;BME280;40468;42.128;24.750;2023-02-15T03:29:26;100984.53;;;3.74;54.12
32875;BME280;40468;42.128;24.750;2023-02-15T03:30:59;100992.25;;;3.75;54.26
32875;BME280;40468;42.128;24.750;2023-02-15T03:32:32;100981.97;;;3.74;54.31
32875;BME280;40468;42.128;24.750;2023-02-15T03:34:04;100990.53;;;3.74;54.24
32875;BME280;40468;42.128;24.750;2023-02-15T03:35:39;100987.09;;;3.75;54.28
32875;BME280;40468;42.128;24.750;2023-02-15T03:37:15;100987.97;;;3.74;54.34
32875;BME280;40468;42.128;24.750;2023-02-15T03:38:51;100981.94;;;3.75;54.39
32875;BME280;40468;42.128;24.750;2023-02-15T03:40:24;100986.25;;;3.75;54.24
32875;BME280;40468;42.128;24.750;2023-02-15T03:42:17;100986.25;;;3.72;54.34
32875;BME280;40468;42.128;24.750;2023-02-15T03:43:51;100986.25;;;3.70;54.53
32875;BME280;40468;42.128;24.750;2023-02-15T03:45:25;100992.25;;;3.72;54.34
32875;BME280;40468;42.128;24.750;2023-02-15T03:47:00;100993.13;;;3.71;54.37
32875;BME280;40468;42.128;24.750;2023-02-15T03:48:35;100993.09;;;3.70;54.39
32875;BME280;40468;42.128;24.750;2023-02-15T03:50:09;100997.41;;;3.69;54.47
32875;BME280;40468;42.128;24.750;2023-02-15T03:51:56;100998.25;;;3.67;54.49
32875;BME280;40468;42.128;24.750;2023-02-15T03:53:31;100997.41;;;3.69;54.44
32875;BME280;40468;42.128;24.750;2023-02-15T03:55:01;101000.81;;;3.67;54.44
32875;BME280;40468;42.128;24.750;2023-02-15T03:56:33;100997.38;;;3.66;54.46
32875;BME280;40468;42.128;24.750;2023-02-15T03:58:04;100993.09;;;3.63;54.56
32875;BME280;40468;42.128;24.750;2023-02-15T03:59:54;101001.69;;;3.65;54.81
32875;BME280;40468;42.128;24.750;2023-02-15T04:01:45;101011.13;;;3.68;54.70
32875;BME280;40468;42.128;24.750;2023-02-15T04:03:31;101006.88;;;3.70;54.59
32875;BME280;40468;42.128;24.750;2023-02-15T04:05:05;101004.28;;;3.70;54.64
32875;BME280;40468;42.128;24.750;2023-02-15T04:06:35;101005.13;;;3.69;54.62
32875;BME280;40468;42.128;24.750;2023-02-15T04:08:07;101003.41;;;3.68;54.65
32875;BME280;40468;42.128;24.750;2023-02-15T04:09:40;101011.13;;;3.68;54.63
32875;BME280;40468;42.128;24.750;2023-02-15T04:11:29;101016.28;;;3.65;54.70
32875;BME280;40468;42.128;24.750;2023-02-15T04:13:00;101007.69;;;3.63;54.75
32875;BME280;40468;42.128;24.750;2023-02-15T04:14:32;101002.53;;;3.63;54.73
32875;BME280;40468;42.128;24.750;2023-02-15T04:16:21;101005.09;;;3.63;54.66
32875;BME280;40468;42.128;24.750;2023-02-15T04:17:51;100995.66;;;3.62;54.76
32875;BME280;40468;42.128;24.750;2023-02-15T04:19:23;100999.09;;;3.62;54.83
32875;BME280;40468;42.128;24.750;2023-02-15T04:21:12;101003.41;;;3.62;54.83
32875;BME280;40468;42.128;24.750;2023-02-15T04:23:03;101005.13;;;3.61;54.75
32875;BME280;40468;42.128;24.750;2023-02-15T04:24:55;101004.25;;;3.61;54.75
32875;BME280;40468;42.128;24.750;2023-02-15T04:26:42;101004.25;;;3.61;54.68
32875;BME280;40468;42.128;24.750;2023-02-15T04:28:14;101004.25;;;3.61;54.53
32875;BME280;40468;42.128;24.750;2023-02-15T04:29:45;101007.69;;;3.60;54.63
32875;BME280;40468;42.128;24.750;2023-02-15T04:31:19;101006.81;;;3.59;54.54
32875;BME280;40468;42.128;24.750;2023-02-15T04:32:53;101017.97;;;3.57;54.58
32875;BME280;40468;42.128;24.750;2023-02-15T04:34:24;101026.56;;;3.56;54.56
32875;BME280;40468;42.128;24.750;2023-02-15T04:35:56;101020.56;;;3.55;54.58
32875;BME280;40468;42.128;24.750;2023-02-15T04:37:28;101027.41;;;3.53;54.46
32875;BME280;40468;42.128;24.750;2023-02-15T04:38:59;101023.97;;;3.50;54.60
32875;BME280;40468;42.128;24.750;2023-02-15T04:40:31;101034.25;;;3.47;54.71
32875;BME280;40468;42.128;24.750;2023-02-15T04:42:03;101029.94;;;3.46;54.63
32875;BME280;40468;42.128;24.750;2023-02-15T04:43:35;101030.78;;;3.43;54.74
32875;BME280;40468;42.128;24.750;2023-02-15T04:45:07;101031.69;;;3.44;54.76
32875;BME280;40468;42.128;24.750;2023-02-15T04:46:38;101029.94;;;3.41;54.65
32875;BME280;40468;42.128;24.750;2023-02-15T04:48:10;101034.22;;;3.39;54.63
32875;BME280;40468;42.128;24.750;2023-02-15T04:49:42;101035.06;;;3.36;54.75
32875;BME280;40468;42.128;24.750;2023-02-15T04:51:13;101036.78;;;3.36;54.89
32875;BME280;40468;42.128;24.750;2023-02-15T04:52:46;101033.34;;;3.35;54.76
32875;BME280;40468;42.128;24.750;2023-02-15T04:54:17;101039.34;;;3.33;54.86
32875;BME280;40468;42.128;24.750;2023-02-15T04:55:50;101044.50;;;3.33;54.81
32875;BME280;40468;42.128;24.750;2023-02-15T04:57:22;101040.19;;;3.33;54.84
32875;BME280;40468;42.128;24.750;2023-02-15T04:58:53;101044.53;;;3.34;54.91
32875;BME280;40468;42.128;24.750;2023-02-15T05:00:24;101047.09;;;3.34;54.76
32875;BME280;40468;42.128;24.750;2023-02-15T05:01:57;101054.81;;;3.36;54.74
32875;BME280;40468;42.128;24.750;2023-02-15T05:03:29;101063.41;;;3.38;54.89
32875;BME280;40468;42.128;24.750;2023-02-15T05:05:00;101059.09;;;3.37;54.90
32875;BME280;40468;42.128;24.750;2023-02-15T05:06:32;101059.13;;;3.38;54.68
32875;BME280;40468;42.128;24.750;2023-02-15T05:08:04;101056.53;;;3.38;54.70
32875;BME280;40468;42.128;24.750;2023-02-15T05:09:35;101057.41;;;3.39;54.79
32875;BME280;40468;42.128;24.750;2023-02-15T05:11:07;101059.13;;;3.38;54.63
32875;BME280;40468;42.128;24.750;2023-02-15T05:12:39;101057.41;;;3.37;54.75
32875;BME280;40468;42.128;24.750;2023-02-15T05:14:11;101065.13;;;3.37;54.76
32875;BME280;40468;42.128;24.750;2023-02-15T05:15:46;101063.38;;;3.36;54.87
32875;BME280;40468;42.128;24.750;2023-02-15T05:17:17;101062.56;;;3.37;54.79
32875;BME280;40468;42.128;24.750;2023-02-15T05:18:49;101070.28;;;3.39;54.89
32875;BME280;40468;42.128;24.750;2023-02-15T05:20:20;101073.69;;;3.36;54.87
32875;BME280;40468;42.128;24.750;2023-02-15T05:21:52;101077.97;;;3.36;54.90
32875;BME280;40468;42.128;24.750;2023-02-15T05:23:24;101072.84;;;3.37;54.91
32875;BME280;40468;42.128;24.750;2023-02-15T05:24:55;101077.13;;;3.37;55.07
32875;BME280;40468;42.128;24.750;2023-02-15T05:26:46;101073.69;;;3.39;55.04
32875;BME280;40468;42.128;24.750;2023-02-15T05:28:35;101081.44;;;3.42;55.14
32875;BME280;40468;42.128;24.750;2023-02-15T05:30:07;101080.59;;;3.44;55.08
32875;BME280;40468;42.128;24.750;2023-02-15T05:31:41;101084.91;;;3.45;55.03
32875;BME280;40468;42.128;24.750;2023-02-15T05:33:17;101089.16;;;3.42;55.24
32875;BME280;40468;42.128;24.750;2023-02-15T05:34:49;101086.59;;;3.41;55.24
32875;BME280;40468;42.128;24.750;2023-02-15T05:36:20;101090.88;;;3.42;55.25
32875;BME280;40468;42.128;24.750;2023-02-15T05:37:52;101086.59;;;3.42;55.24
32875;BME280;40468;42.128;24.750;2023-02-15T05:39:24;101084.88;;;3.43;55.21
32875;BME280;40468;42.128;24.750;2023-02-15T05:40:55;101091.75;;;3.46;55.20
32875;BME280;40468;42.128;24.750;2023-02-15T05:42:28;101091.75;;;3.44;55.47
32875;BME280;40468;42.128;24.750;2023-02-15T05:44:00;101094.34;;;3.44;55.50
32875;BME280;40468;42.128;24.750;2023-02-15T05:45:31;101102.91;;;3.45;55.62
32875;BME280;40468;42.128;24.750;2023-02-15T05:47:03;101108.94;;;3.45;55.61
32875;BME280;40468;42.128;24.750;2023-02-15T05:48:37;101097.78;;;3.48;55.51
32875;BME280;40468;42.128;24.750;2023-02-15T05:50:08;101112.38;;;3.52;55.60
32875;BME280;40468;42.128;24.750;2023-02-15T05:51:40;101101.25;;;3.53;55.57
32875;BME280;40468;42.128;24.750;2023-02-15T05:53:11;101102.09;;;3.55;55.56
32875;BME280;40468;42.128;24.750;2023-02-15T05:54:42;101105.56;;;3.55;55.59
32875;BME280;40468;42.128;24.750;2023-02-15T05:56:14;101107.25;;;3.58;55.59
32875;BME280;40468;42.128;24.750;2023-02-15T05:57:48;101108.13;;;3.60;55.50
32875;BME280;40468;42.128;24.750;2023-02-15T05:59:19;101105.59;;;3.64;55.62
32875;BME280;40468;42.128;24.750;2023-02-15T06:00:51;101116.75;;;3.67;55.57
32875;BME280;40468;42.128;24.750;2023-02-15T06:02:22;101118.50;;;3.71;55.47
32875;BME280;40468;42.128;24.750;2023-02-15T06:03:54;101111.66;;;3.73;55.52
32875;BME280;40468;42.128;24.750;2023-02-15T06:05:26;101115.91;;;3.75;55.50
32875;BME280;40468;42.128;24.750;2023-02-15T06:06:57;101119.38;;;3.80;55.44
32875;BME280;40468;42.128;24.750;2023-02-15T06:08:29;101109.94;;;3.87;55.58
32875;BME280;40468;42.128;24.750;2023-02-15T06:10:00;101117.69;;;3.93;55.38
32875;BME280;40468;42.128;24.750;2023-02-15T06:11:32;101126.34;;;4.00;55.36
32875;BME280;40468;42.128;24.750;2023-02-15T06:13:05;101111.72;;;4.05;55.33
32875;BME280;40468;42.128;24.750;2023-02-15T06:14:37;101111.72;;;4.11;55.26
32875;BME280;40468;42.128;24.750;2023-02-15T06:16:09;101105.75;;;4.15;55.27
32875;BME280;40468;42.128;24.750;2023-02-15T06:17:40;101111.78;;;4.23;55.11
32875;BME280;40468;42.128;24.750;2023-02-15T06:19:12;101117.78;;;4.28;55.05
32875;BME280;40468;42.128;24.750;2023-02-15T06:20:44;101121.25;;;4.35;54.95
32875;BME280;40468;42.128;24.750;2023-02-15T06:22:16;101126.44;;;4.44;54.71
32875;BME280;40468;42.128;24.750;2023-02-15T06:23:48;101134.16;;;4.50;54.74
32875;BME280;40468;42.128;24.750;2023-02-15T06:25:19;101128.16;;;4.56;54.54
32875;BME280;40468;42.128;24.750;2023-02-15T06:26:51;101128.16;;;4.59;54.55
32875;BME280;40468;42.128;24.750;2023-02-15T06:28:24;101133.31;;;4.67;54.44
32875;BME280;40468;42.128;24.750;2023-02-15T06:29:56;101122.16;;;4.74;54.35
32875;BME280;40468;42.128;24.750;2023-02-15T06:31:28;101127.28;;;4.82;54.13
32875;BME280;40468;42.128;24.750;2023-02-15T06:33:00;101125.56;;;4.90;54.03
32875;BME280;40468;42.128;24.750;2023-02-15T06:34:32;101120.41;;;4.97;53.90
32875;BME280;40468;42.128;24.750;2023-02-15T06:36:03;101127.28;;;5.08;53.72
32875;BME280;40468;42.128;24.750;2023-02-15T06:37:35;101122.94;;;5.14;53.57
32875;BME280;40468;42.128;24.750;2023-02-15T06:39:07;101123.81;;;5.21;53.52
32875;BME280;40468;42.128;24.750;2023-02-15T06:40:38;101126.38;;;5.30;53.33
32875;BME280;40468;42.128;24.750;2023-02-15T06:42:10;101129.81;;;5.41;53.34
32875;BME280;40468;42.128;24.750;2023-02-15T06:43:43;101131.47;;;5.50;52.93
32875;BME280;40468;42.128;24.750;2023-02-15T06:45:14;101137.50;;;5.60;52.93
32875;BME280;40468;42.128;24.750;2023-02-15T06:46:45;101125.38;;;5.69;52.80
32875;BME280;40468;42.128;24.750;2023-02-15T06:48:17;101137.41;;;5.81;52.67
32875;BME280;40468;42.128;24.750;2023-02-15T06:49:48;101133.94;;;5.95;52.37
32875;BME280;40468;42.128;24.750;2023-02-15T06:51:20;101129.56;;;6.07;52.06
32875;BME280;40468;42.128;24.750;2023-02-15T06:52:55;101126.88;;;6.23;51.98
32875;BME280;40468;42.128;24.750;2023-02-15T06:54:26;101129.38;;;6.40;51.65
32875;BME280;40468;42.128;24.750;2023-02-15T06:56:01;101130.13;;;6.54;51.41
32875;BME280;40468;42.128;24.750;2023-02-15T06:57:36;101131.72;;;6.72;50.83
32875;BME280;40468;42.128;24.750;2023-02-15T06:59:09;101125.56;;;6.87;50.70
32875;BME280;40468;42.128;24.750;2023-02-15T07:00:41;101138.31;;;7.06;50.56
32875;BME280;40468;42.128;24.750;2023-02-15T07:02:12;101126.09;;;7.21;50.09
32875;BME280;40468;42.128;24.750;2023-02-15T07:03:44;101136.28;;;7.38;49.81
32875;BME280;40468;42.128;24.750;2023-02-15T07:05:16;101136.28;;;7.38;49.10
32875;BME280;40468;42.128;24.750;2023-02-15T07:06:48;101134.56;;;7.37;48.76
32875;BME280;40468;42.128;24.750;2023-02-15T07:08:19;101128.47;;;7.41;48.37
32875;BME280;40468;42.128;24.750;2023-02-15T07:09:51;101126.72;;;7.43;48.12
32875;BME280;40468;42.128;24.750;2023-02-15T07:11:22;101129.16;;;7.58;48.45
32875;BME280;40468;42.128;24.750;2023-02-15T07:13:11;101118.53;;;7.77;48.17
32875;BME280;40468;42.128;24.750;2023-02-15T07:14:44;101119.16;;;7.97;47.92
32875;BME280;40468;42.128;24.750;2023-02-15T07:16:16;101120.31;;;8.36;48.24
32875;BME280;40468;42.128;24.750;2023-02-15T07:17:48;101117.03;;;8.81;47.81
32875;BME280;40468;42.128;24.750;2023-02-15T07:19:19;101115.47;;;9.22;46.76
32875;BME280;40468;42.128;24.750;2023-02-15T07:20:51;101111.22;;;9.61;45.81
32875;BME280;40468;42.128;24.750;2023-02-15T07:22:23;101114.69;;;10.03;45.31
32875;BME280;40468;42.128;24.750;2023-02-15T07:23:55;101107.88;;;10.37;44.01
32875;BME280;40468;42.128;24.750;2023-02-15T07:25:27;101103.75;;;10.65;44.13
32875;BME280;40468;42.128;24.750;2023-02-15T07:26:59;101105.44;;;11.01;43.23
32875;BME280;40468;42.128;24.750;2023-02-15T07:28:30;101115.72;;;11.39;42.86
32875;BME280;40468;42.128;24.750;2023-02-15T07:30:04;101101.97;;;11.64;41.81
32875;BME280;40468;42.128;24.750;2023-02-15T07:31:36;101106.91;;;11.73;41.15
32875;BME280;40468;42.128;24.750;2023-02-15T07:33:08;101109.75;;;11.66;40.59
32875;BME280;40468;42.128;24.750;2023-02-15T07:34:54;101112.28;;;11.69;39.99
32875;BME280;40468;42.128;24.750;2023-02-15T07:36:26;101111.47;;;11.67;39.73
32875;BME280;40468;42.128;24.750;2023-02-15T07:37:57;101104.47;;;11.69;39.93
32875;BME280;40468;42.128;24.750;2023-02-15T07:39:29;101109.22;;;11.84;39.95
32875;BME280;40468;42.128;24.750;2023-02-15T07:41:01;101101.44;;;12.12;39.90
32875;BME280;40468;42.128;24.750;2023-02-15T07:42:33;101112.69;;;12.42;39.19
32875;BME280;40468;42.128;24.750;2023-02-15T07:44:04;101108.47;;;12.65;38.79
32875;BME280;40468;42.128;24.750;2023-02-15T07:45:37;101108.78;;;12.82;38.75
32875;BME280;40468;42.128;24.750;2023-02-15T07:47:09;101113.97;;;13.09;38.33
32875;BME280;40468;42.128;24.750;2023-02-15T07:48:41;101116.72;;;13.04;37.53
32875;BME280;40468;42.128;24.750;2023-02-15T07:50:13;101116.50;;;12.85;37.38
32875;BME280;40468;42.128;24.750;2023-02-15T07:51:44;101114.34;;;12.45;37.44
32875;BME280;40468;42.128;24.750;2023-02-15T07:53:16;101117.53;;;11.98;37.49
32875;BME280;40468;42.128;24.750;2023-02-15T07:54:48;101124.97;;;11.81;38.23
32875;BME280;40468;42.128;24.750;2023-02-15T07:56:19;101119.31;;;11.96;38.74
32875;BME280;40468;42.128;24.750;2023-02-15T07:57:51;101118.09;;;12.36;38.46
32875;BME280;40468;42.128;24.750;2023-02-15T07:59:27;101114.00;;;12.82;37.88
32875;BME280;40468;42.128;24.750;2023-02-15T08:01:00;101120.31;;;13.28;37.89
32875;BME280;40468;42.128;24.750;2023-02-15T08:02:35;101113.97;;;13.59;36.69
32875;BME280;40468;42.128;24.750;2023-02-15T08:04:07;101117.81;;;13.72;36.24
32875;BME280;40468;42.128;24.750;2023-02-15T08:05:39;101124.88;;;13.94;35.96
32875;BME280;40468;42.128;24.750;2023-02-15T08:07:12;101104.19;;;14.09;35.55
32875;BME280;40468;42.128;24.750;2023-02-15T08:08:43;101117.41;;;14.06;34.86
32875;BME280;40468;42.128;24.750;2023-02-15T08:10:15;101114.34;;;13.95;35.06
32875;BME280;40468;42.128;24.750;2023-02-15T08:12:06;101095.84;;;14.00;34.96
32875;BME280;40468;42.128;24.750;2023-02-15T08:13:38;101115.03;;;14.00;34.28
32875;BME280;40468;42.128;24.750;2023-02-15T08:15:23;101113.13;;;13.58;34.40